sensor_id;sensor_type;location;lat;lon;timestamp;temperature;humidity
15821;DHT22;8011;51.650;7.240;2022-07-23T03:05:57;16.40;99.90
15821;DHT22;8011;51.650;7.240;2022-07-23T03:08:22;16.40;99.90
15821;DHT22;8011;51.650;7.240;2022-07-23T03:10:49;16.40;99.90
15821;DHT22;8011;51.650;7.240;2022-07-23T03:13:15;16.40;99.90
15821;DHT22;8011;51.650;7.240;2022-07-23T03:15:40;16.40;99.90
15821;DHT22;8011;51.650;7.240;2022-07-23T03:18:06;16.30;99.90
15821;DHT22;8011;51.650;7.240;2022-07-23T03:20:32;16.30;99.90
15821;DHT22;8011;51.650;7.240;2022-07-23T03:22:57;16.30;99.90
15821;DHT22;8011;51.650;7.240;2022-07-23T03:25:38;16.20;99.90
15821;DHT22;8011;51.650;7.240;2022-07-23T03:28:04;16.20;99.90
15821;DHT22;8011;51.650;7.240;2022-07-23T03:30:30;16.20;99.90
15821;DHT22;8011;51.650;7.240;2022-07-23T03:32:55;16.20;99.90
15821;DHT22;8011;51.650;7.240;2022-07-23T03:35:36;16.20;99.90
15821;DHT22;8011;51.650;7.240;2022-07-23T03:38:02;16.20;99.90
15821;DHT22;8011;51.650;7.240;2022-07-23T03:40:28;16.20;99.90
15821;DHT22;8011;51.650;7.240;2022-07-23T03:42:53;16.20;99.90
15821;DHT22;8011;51.650;7.240;2022-07-23T03:45:19;16.20;99.90
15821;DHT22;8011;51.650;7.240;2022-07-23T03:47:44;16.20;99.90
15821;DHT22;8011;51.650;7.240;2022-07-23T03:50:10;16.20;99.90
15821;DHT22;8011;51.650;7.240;2022-07-23T03:52:36;16.20;99.90
15821;DHT22;8011;51.650;7.240;2022-07-23T03:55:03;16.20;99.90
15821;DHT22;8011;51.650;7.240;2022-07-23T03:57:29;16.10;99.90
15821;DHT22;8011;51.650;7.240;2022-07-23T03:59:55;16.10;99.90
15821;DHT22;8011;51.650;7.240;2022-07-23T04:02:20;16.10;99.90
15821;DHT22;8011;51.650;7.240;2022-07-23T04:04:46;16.10;99.90
15821;DHT22;8011;51.650;7.240;2022-07-23T04:07:12;16.10;99.90
15821;DHT22;8011;51.650;7.240;2022-07-23T04:09:38;16.10;99.90
15821;DHT22;8011;51.650;7.240;2022-07-23T04:12:06;16.10;99.90
15821;DHT22;8011;51.650;7.240;2022-07-23T04:14:32;16.10;99.90
15821;DHT22;8011;51.650;7.240;2022-07-23T04:16:58;16.10;99.90
15821;DHT22;8011;51.650;7.240;2022-07-23T04:19:24;16.10;99.90
15821;DHT22;8011;51.650;7.240;2022-07-23T04:21:50;16.10;99.90
15821;DHT22;8011;51.650;7.240;2022-07-23T04:24:16;16.10;99.90
15821;DHT22;8011;51.650;7.240;2022-07-23T04:26:42;16.10;99.90
15821;DHT22;8011;51.650;7.240;2022-07-23T04:29:07;16.10;99.90
15821;DHT22;8011;51.650;7.240;2022-07-23T04:31:33;16.10;99.90
15821;DHT22;8011;51.650;7.240;2022-07-23T04:33:59;16.10;99.90
15821;DHT22;8011;51.650;7.240;2022-07-23T04:36:24;16.10;99.90
15821;DHT22;8011;51.650;7.240;2022-07-23T04:38:50;16.10;99.90
15821;DHT22;8011;51.650;7.240;2022-07-23T04:41:16;16.10;99.90
15821;DHT22;8011;51.650;7.240;2022-07-23T04:43:41;16.10;99.90
15821;DHT22;8011;51.650;7.240;2022-07-23T04:46:07;16.10;99.90
15821;DHT22;8011;51.650;7.240;2022-07-23T04:48:33;16.20;99.90
15821;DHT22;8011;51.650;7.240;2022-07-23T04:50:58;16.20;99.90
15821;DHT22;8011;51.650;7.240;2022-07-23T04:53:24;16.20;99.90
15821;DHT22;8011;51.650;7.240;2022-07-23T04:55:50;16.20;99.90
15821;DHT22;8011;51.650;7.240;2022-07-23T04:58:15;16.20;99.90
15821;DHT22;8011;51.650;7.240;2022-07-23T05:00:41;16.20;99.90
15821;DHT22;8011;51.650;7.240;2022-07-23T05:03:06;16.30;99.90
15821;DHT22;8011;51.650;7.240;2022-07-23T05:05:32;16.30;99.90
15821;DHT22;8011;51.650;7.240;2022-07-23T05:07:58;16.40;99.90
15821;DHT22;8011;51.650;7.240;2022-07-23T05:10:24;16.40;99.90
15821;DHT22;8011;51.650;7.240;2022-07-23T05:12:49;16.40;99.90
15821;DHT22;8011;51.650;7.240;2022-07-23T05:15:15;16.50;99.90
15821;DHT22;8011;51.650;7.240;2022-07-23T05:17:41;16.60;99.90
15821;DHT22;8011;51.650;7.240;2022-07-23T05:20:07;16.60;99.90
15821;DHT22;8011;51.650;7.240;2022-07-23T05:22:32;16.70;99.90
15821;DHT22;8011;51.650;7.240;2022-07-23T05:24:58;16.70;99.90
15821;DHT22;8011;51.650;7.240;2022-07-23T05:27:24;16.80;99.90
15821;DHT22;8011;51.650;7.240;2022-07-23T05:29:50;16.80;99.90
15821;DHT22;8011;51.650;7.240;2022-07-23T05:32:15;16.90;99.90
15821;DHT22;8011;51.650;7.240;2022-07-23T05:34:41;17.00;99.90
15821;DHT22;8011;51.650;7.240;2022-07-23T05:37:07;17.10;99.90
15821;DHT22;8011;51.650;7.240;2022-07-23T05:39:32;17.20;99.90
15821;DHT22;8011;51.650;7.240;2022-07-23T05:41:58;17.30;99.90
15821;DHT22;8011;51.650;7.240;2022-07-23T05:44:24;17.30;99.90
15821;DHT22;8011;51.650;7.240;2022-07-23T05:46:49;17.40;99.90
15821;DHT22;8011;51.650;7.240;2022-07-23T05:49:15;17.40;99.90
15821;DHT22;8011;51.650;7.240;2022-07-23T05:51:41;17.50;99.90
15821;DHT22;8011;51.650;7.240;2022-07-23T05:54:06;17.60;99.90
15821;DHT22;8011;51.650;7.240;2022-07-23T05:56:32;17.60;99.90
15821;DHT22;8011;51.650;7.240;2022-07-23T05:58:57;17.70;99.90
15821;DHT22;8011;51.650;7.240;2022-07-23T06:01:23;17.90;99.90
15821;DHT22;8011;51.650;7.240;2022-07-23T06:03:49;17.90;99.90
15821;DHT22;8011;51.650;7.240;2022-07-23T06:06:14;18.00;99.90
15821;DHT22;8011;51.650;7.240;2022-07-23T06:08:40;18.10;99.90
15821;DHT22;8011;51.650;7.240;2022-07-23T06:11:06;18.20;99.90
15821;DHT22;8011;51.650;7.240;2022-07-23T06:13:31;18.30;99.90
15821;DHT22;8011;51.650;7.240;2022-07-23T06:15:57;18.40;99.90
15821;DHT22;8011;51.650;7.240;2022-07-23T06:18:23;18.50;99.90
15821;DHT22;8011;51.650;7.240;2022-07-23T06:20:48;18.60;99.90
15821;DHT22;8011;51.650;7.240;2022-07-23T06:23:14;18.70;99.90
15821;DHT22;8011;51.650;7.240;2022-07-23T06:25:39;18.60;99.90
15821;DHT22;8011;51.650;7.240;2022-07-23T06:28:05;18.60;99.90
15821;DHT22;8011;51.650;7.240;2022-07-23T06:30:31;18.70;99.90
15821;DHT22;8011;51.650;7.240;2022-07-23T06:32:56;18.70;99.90
15821;DHT22;8011;51.650;7.240;2022-07-23T06:35:22;18.80;99.90
15821;DHT22;8011;51.650;7.240;2022-07-23T06:37:48;18.90;99.90
15821;DHT22;8011;51.650;7.240;2022-07-23T06:40:13;18.90;99.90
15821;DHT22;8011;51.650;7.240;2022-07-23T06:42:39;18.90;99.90
15821;DHT22;8011;51.650;7.240;2022-07-23T06:45:06;18.90;99.90
15821;DHT22;8011;51.650;7.240;2022-07-23T06:47:32;19.10;99.90
15821;DHT22;8011;51.650;7.240;2022-07-23T06:49:58;19.20;99.90
15821;DHT22;8011;51.650;7.240;2022-07-23T06:52:23;19.30;99.90
15821;DHT22;8011;51.650;7.240;2022-07-23T06:54:49;19.30;99.90
15821;DHT22;8011;51.650;7.240;2022-07-23T06:57:15;19.30;99.90
15821;DHT22;8011;51.650;7.240;2022-07-23T06:59:40;19.40;99.90
15821;DHT22;8011;51.650;7.240;2022-07-23T07:02:07;19.40;99.90
15821;DHT22;8011;51.650;7.240;2022-07-23T07:04:33;19.50;99.90
15821;DHT22;8011;51.650;7.240;2022-07-23T07:06:59;19.40;99.90
15821;DHT22;8011;51.650;7.240;2022-07-23T07:09:25;19.50;99.90
15821;DHT22;8011;51.650;7.240;2022-07-23T07:11:51;19.60;99.90
15821;DHT22;8011;51.650;7.240;2022-07-23T07:14:16;19.70;99.90
15821;DHT22;8011;51.650;7.240;2022-07-23T07:16:42;19.60;99.90
15821;DHT22;8011;51.650;7.240;2022-07-23T07:19:08;19.40;99.90
15821;DHT22;8011;51.650;7.240;2022-07-23T07:21:34;19.40;99.90
15821;DHT22;8011;51.650;7.240;2022-07-23T07:23:59;19.50;99.90
15821;DHT22;8011;51.650;7.240;2022-07-23T07:26:25;19.60;99.90
15821;DHT22;8011;51.650;7.240;2022-07-23T07:28:51;19.70;99.90
15821;DHT22;8011;51.650;7.240;2022-07-23T07:31:17;19.70;99.90
15821;DHT22;8011;51.650;7.240;2022-07-23T07:33:42;19.80;99.90
15821;DHT22;8011;51.650;7.240;2022-07-23T07:36:08;19.60;99.90
15821;DHT22;8011;51.650;7.240;2022-07-23T07:38:34;19.60;99.90
15821;DHT22;8011;51.650;7.240;2022-07-23T07:40:59;19.80;99.90
15821;DHT22;8011;51.650;7.240;2022-07-23T07:43:25;19.90;99.90
15821;DHT22;8011;51.650;7.240;2022-07-23T07:45:51;19.90;99.90
15821;DHT22;8011;51.650;7.240;2022-07-23T07:48:17;19.90;99.90
15821;DHT22;8011;51.650;7.240;2022-07-23T07:50:42;20.10;99.90
15821;DHT22;8011;51.650;7.240;2022-07-23T07:53:08;20.10;99.90
15821;DHT22;8011;51.650;7.240;2022-07-23T07:55:34;20.10;99.90
15821;DHT22;8011;51.650;7.240;2022-07-23T07:58:00;20.20;99.90
15821;DHT22;8011;51.650;7.240;2022-07-23T08:00:26;20.40;99.90
15821;DHT22;8011;51.650;7.240;2022-07-23T08:02:55;20.50;99.90
15821;DHT22;8011;51.650;7.240;2022-07-23T08:05:22;20.50;99.90
15821;DHT22;8011;51.650;7.240;2022-07-23T08:07:49;20.50;99.90
15821;DHT22;8011;51.650;7.240;2022-07-23T08:10:16;20.50;99.90
15821;DHT22;8011;51.650;7.240;2022-07-23T08:12:44;20.60;99.90
15821;DHT22;8011;51.650;7.240;2022-07-23T08:15:10;20.80;99.90
15821;DHT22;8011;51.650;7.240;2022-07-23T08:17:37;21.00;99.90
15821;DHT22;8011;51.650;7.240;2022-07-23T08:20:04;21.00;99.90
15821;DHT22;8011;51.650;7.240;2022-07-23T08:22:49;20.90;99.90
15821;DHT22;8011;51.650;7.240;2022-07-23T08:25:16;20.80;99.90
15821;DHT22;8011;51.650;7.240;2022-07-23T08:27:42;20.60;99.90
15821;DHT22;8011;51.650;7.240;2022-07-23T08:30:08;20.60;99.90
15821;DHT22;8011;51.650;7.240;2022-07-23T08:32:48;20.90;99.90
15821;DHT22;8011;51.650;7.240;2022-07-23T08:35:14;21.00;99.90
15821;DHT22;8011;51.650;7.240;2022-07-23T08:37:39;21.00;99.90
15821;DHT22;8011;51.650;7.240;2022-07-23T08:40:05;21.10;99.90
15821;DHT22;8011;51.650;7.240;2022-07-23T08:42:32;21.10;99.90
15821;DHT22;8011;51.650;7.240;2022-07-23T08:45:02;21.20;99.90
15821;DHT22;8011;51.650;7.240;2022-07-23T08:47:28;21.20;99.90
15821;DHT22;8011;51.650;7.240;2022-07-23T08:49:56;21.00;99.90
15821;DHT22;8011;51.650;7.240;2022-07-23T08:52:22;20.90;99.90
15821;DHT22;8011;51.650;7.240;2022-07-23T08:54:48;20.90;99.90
15821;DHT22;8011;51.650;7.240;2022-07-23T08:57:14;21.10;99.90
15821;DHT22;8011;51.650;7.240;2022-07-23T08:59:41;21.00;99.90
15821;DHT22;8011;51.650;7.240;2022-07-23T09:02:06;21.10;99.90
15821;DHT22;8011;51.650;7.240;2022-07-23T09:04:32;21.30;99.90
15821;DHT22;8011;51.650;7.240;2022-07-23T09:06:58;21.30;99.90
15821;DHT22;8011;51.650;7.240;2022-07-23T09:09:24;21.60;99.90
15821;DHT22;8011;51.650;7.240;2022-07-23T09:12:09;21.80;99.90
15821;DHT22;8011;51.650;7.240;2022-07-23T09:14:45;21.80;99.90
15821;DHT22;8011;51.650;7.240;2022-07-23T09:17:14;21.80;99.90
15821;DHT22;8011;51.650;7.240;2022-07-23T09:19:41;21.80;99.90
15821;DHT22;8011;51.650;7.240;2022-07-23T09:22:24;22.00;99.90
15821;DHT22;8011;51.650;7.240;2022-07-23T09:27:55;21.90;99.90
15821;DHT22;8011;51.650;7.240;2022-07-23T09:30:26;22.00;99.90
15821;DHT22;8011;51.650;7.240;2022-07-23T09:33:12;22.10;99.90
15821;DHT22;8011;51.650;7.240;2022-07-23T09:35:54;21.90;99.90
15821;DHT22;8011;51.650;7.240;2022-07-23T09:38:21;21.90;99.90
15821;DHT22;8011;51.650;7.240;2022-07-23T09:41:08;21.90;99.90
15821;DHT22;8011;51.650;7.240;2022-07-23T09:43:34;22.00;99.90
15821;DHT22;8011;51.650;7.240;2022-07-23T09:46:23;22.10;99.90
15821;DHT22;8011;51.650;7.240;2022-07-23T09:48:50;22.30;99.90
15821;DHT22;8011;51.650;7.240;2022-07-23T09:51:17;22.30;99.90
15821;DHT22;8011;51.650;7.240;2022-07-23T09:54:33;22.30;99.90
15821;DHT22;8011;51.650;7.240;2022-07-23T09:57:08;22.20;99.90
15821;DHT22;8011;51.650;7.240;2022-07-23T09:59:38;22.20;99.90
15821;DHT22;8011;51.650;7.240;2022-07-23T10:02:07;22.30;99.90
15821;DHT22;8011;51.650;7.240;2022-07-23T10:04:33;22.50;99.90
15821;DHT22;8011;51.650;7.240;2022-07-23T10:07:02;22.30;99.90
15821;DHT22;8011;51.650;7.240;2022-07-23T10:09:33;22.10;99.90
15821;DHT22;8011;51.650;7.240;2022-07-23T10:12:02;22.00;99.90
15821;DHT22;8011;51.650;7.240;2022-07-23T10:14:47;22.00;99.90
15821;DHT22;8011;51.650;7.240;2022-07-23T10:17:14;22.00;99.90
15821;DHT22;8011;51.650;7.240;2022-07-23T10:19:40;22.00;99.90
15821;DHT22;8011;51.650;7.240;2022-07-23T10:22:14;22.00;99.90
15821;DHT22;8011;51.650;7.240;2022-07-23T10:24:46;22.10;99.90
15821;DHT22;8011;51.650;7.240;2022-07-23T10:30:39;21.90;99.90
15821;DHT22;8011;51.650;7.240;2022-07-23T10:38:37;22.20;99.90
15821;DHT22;8011;51.650;7.240;2022-07-23T10:41:05;22.30;99.90
15821;DHT22;8011;51.650;7.240;2022-07-23T10:43:32;22.40;99.90
15821;DHT22;8011;51.650;7.240;2022-07-23T10:46:25;22.30;99.90
15821;DHT22;8011;51.650;7.240;2022-07-23T10:49:27;22.30;99.90
15821;DHT22;8011;51.650;7.240;2022-07-23T10:54:56;22.50;99.90
15821;DHT22;8011;51.650;7.240;2022-07-23T10:57:49;22.40;99.90
15821;DHT22;8011;51.650;7.240;2022-07-23T11:00:29;22.40;99.90
15821;DHT22;8011;51.650;7.240;2022-07-23T11:03:03;22.30;99.90
15821;DHT22;8011;51.650;7.240;2022-07-23T11:05:44;22.20;99.90
15821;DHT22;8011;51.650;7.240;2022-07-23T11:08:12;22.30;99.90
15821;DHT22;8011;51.650;7.240;2022-07-23T11:24:12;22.30;99.90
15821;DHT22;8011;51.650;7.240;2022-07-23T11:32:04;22.30;99.90
15821;DHT22;8011;51.650;7.240;2022-07-23T11:34:40;22.40;99.90
15821;DHT22;8011;51.650;7.240;2022-07-23T11:37:11;22.40;99.90
15821;DHT22;8011;51.650;7.240;2022-07-23T11:39:38;22.40;99.90
15821;DHT22;8011;51.650;7.240;2022-07-23T11:42:05;22.50;99.90
15821;DHT22;8011;51.650;7.240;2022-07-23T11:44:37;22.40;99.90
15821;DHT22;8011;51.650;7.240;2022-07-23T11:47:05;22.30;99.90
15821;DHT22;8011;51.650;7.240;2022-07-23T11:49:31;22.40;99.90
15821;DHT22;8011;51.650;7.240;2022-07-23T11:54:33;22.60;99.90
15821;DHT22;8011;51.650;7.240;2022-07-23T11:57:00;22.70;99.90
15821;DHT22;8011;51.650;7.240;2022-07-23T11:59:28;22.70;99.90
15821;DHT22;8011;51.650;7.240;2022-07-23T12:04:24;22.80;99.90
15821;DHT22;8011;51.650;7.240;2022-07-23T12:06:49;22.90;99.90
15821;DHT22;8011;51.650;7.240;2022-07-23T12:09:15;22.90;99.90
15821;DHT22;8011;51.650;7.240;2022-07-23T12:11:57;22.90;99.90
15821;DHT22;8011;51.650;7.240;2022-07-23T12:14:23;22.90;99.90
15821;DHT22;8011;51.650;7.240;2022-07-23T12:17:07;23.00;99.90
15821;DHT22;8011;51.650;7.240;2022-07-23T12:19:33;22.90;99.90
15821;DHT22;8011;51.650;7.240;2022-07-23T12:21:58;22.90;99.90
15821;DHT22;8011;51.650;7.240;2022-07-23T12:24:24;22.90;99.90
15821;DHT22;8011;51.650;7.240;2022-07-23T12:27:10;22.90;99.90
15821;DHT22;8011;51.650;7.240;2022-07-23T12:29:37;23.00;99.90
15821;DHT22;8011;51.650;7.240;2022-07-23T12:32:15;23.10;99.90
15821;DHT22;8011;51.650;7.240;2022-07-23T12:34:42;23.10;99.90
15821;DHT22;8011;51.650;7.240;2022-07-23T12:37:07;23.10;99.90
15821;DHT22;8011;51.650;7.240;2022-07-23T12:39:33;23.00;99.90
15821;DHT22;8011;51.650;7.240;2022-07-23T12:41:59;23.00;99.90
15821;DHT22;8011;51.650;7.240;2022-07-23T12:44:25;23.10;99.90
15821;DHT22;8011;51.650;7.240;2022-07-23T12:46:52;23.10;99.90
15821;DHT22;8011;51.650;7.240;2022-07-23T12:49:27;23.10;99.90
15821;DHT22;8011;51.650;7.240;2022-07-23T12:51:53;23.20;99.90
15821;DHT22;8011;51.650;7.240;2022-07-23T12:54:27;23.20;99.90
15821;DHT22;8011;51.650;7.240;2022-07-23T12:56:53;23.10;99.90
15821;DHT22;8011;51.650;7.240;2022-07-23T12:59:19;23.20;99.90
15821;DHT22;8011;51.650;7.240;2022-07-23T13:01:55;23.20;99.90
15821;DHT22;8011;51.650;7.240;2022-07-23T13:04:24;23.20;99.90
15821;DHT22;8011;51.650;7.240;2022-07-23T13:06:53;23.20;99.90
15821;DHT22;8011;51.650;7.240;2022-07-23T13:09:21;23.20;99.90
15821;DHT22;8011;51.650;7.240;2022-07-23T13:11:48;23.30;99.90
15821;DHT22;8011;51.650;7.240;2022-07-23T13:14:16;23.20;99.90
15821;DHT22;8011;51.650;7.240;2022-07-23T13:16:42;23.20;99.90
15821;DHT22;8011;51.650;7.240;2022-07-23T13:19:08;23.30;99.90
15821;DHT22;8011;51.650;7.240;2022-07-23T13:21:34;23.30;99.90
15821;DHT22;8011;51.650;7.240;2022-07-23T13:24:00;23.30;99.90
15821;DHT22;8011;51.650;7.240;2022-07-23T13:26:26;23.30;99.90
15821;DHT22;8011;51.650;7.240;2022-07-23T13:28:52;23.40;99.90
15821;DHT22;8011;51.650;7.240;2022-07-23T13:31:18;23.40;99.90
15821;DHT22;8011;51.650;7.240;2022-07-23T13:33:44;23.50;99.90
15821;DHT22;8011;51.650;7.240;2022-07-23T13:36:10;23.50;99.90
15821;DHT22;8011;51.650;7.240;2022-07-23T13:38:36;23.50;99.90
15821;DHT22;8011;51.650;7.240;2022-07-23T13:41:02;23.70;99.90
15821;DHT22;8011;51.650;7.240;2022-07-23T13:43:31;23.80;99.90
15821;DHT22;8011;51.650;7.240;2022-07-23T13:45:57;23.70;99.90
15821;DHT22;8011;51.650;7.240;2022-07-23T13:48:23;23.70;99.90
15821;DHT22;8011;51.650;7.240;2022-07-23T13:50:50;23.70;99.90
15821;DHT22;8011;51.650;7.240;2022-07-23T13:53:23;23.70;99.90
15821;DHT22;8011;51.650;7.240;2022-07-23T13:55:52;23.70;99.90
15821;DHT22;8011;51.650;7.240;2022-07-23T13:58:18;23.60;99.90
15821;DHT22;8011;51.650;7.240;2022-07-23T14:00:47;23.50;99.90
15821;DHT22;8011;51.650;7.240;2022-07-23T14:03:13;23.50;99.90
15821;DHT22;8011;51.650;7.240;2022-07-23T14:05:39;23.50;99.90
15821;DHT22;8011;51.650;7.240;2022-07-23T14:08:05;23.50;99.90
15821;DHT22;8011;51.650;7.240;2022-07-23T14:10:31;23.50;99.90
15821;DHT22;8011;51.650;7.240;2022-07-23T14:12:57;23.50;99.90
15821;DHT22;8011;51.650;7.240;2022-07-23T14:15:25;23.50;99.90
15821;DHT22;8011;51.650;7.240;2022-07-23T14:17:52;23.60;99.90
15821;DHT22;8011;51.650;7.240;2022-07-23T14:20:18;23.70;99.90
15821;DHT22;8011;51.650;7.240;2022-07-23T14:22:44;23.70;99.90
15821;DHT22;8011;51.650;7.240;2022-07-23T14:25:11;23.70;99.90
15821;DHT22;8011;51.650;7.240;2022-07-23T14:27:37;23.80;99.90
15821;DHT22;8011;51.650;7.240;2022-07-23T14:30:05;23.80;99.90
15821;DHT22;8011;51.650;7.240;2022-07-23T14:32:31;23.80;99.90
15821;DHT22;8011;51.650;7.240;2022-07-23T14:34:56;23.80;99.90
15821;DHT22;8011;51.650;7.240;2022-07-23T14:37:22;23.80;99.90
15821;DHT22;8011;51.650;7.240;2022-07-23T14:39:48;23.90;99.90
15821;DHT22;8011;51.650;7.240;2022-07-23T14:42:14;23.80;99.90
15821;DHT22;8011;51.650;7.240;2022-07-23T14:44:40;23.80;99.90
15821;DHT22;8011;51.650;7.240;2022-07-23T14:47:08;23.80;99.90
15821;DHT22;8011;51.650;7.240;2022-07-23T14:49:34;23.80;99.90
15821;DHT22;8011;51.650;7.240;2022-07-23T14:52:00;23.80;99.90
15821;DHT22;8011;51.650;7.240;2022-07-23T14:54:27;23.80;99.90
15821;DHT22;8011;51.650;7.240;2022-07-23T14:56:54;23.70;99.90
15821;DHT22;8011;51.650;7.240;2022-07-23T14:59:20;23.70;99.90
15821;DHT22;8011;51.650;7.240;2022-07-23T15:01:46;23.70;99.90
15821;DHT22;8011;51.650;7.240;2022-07-23T15:04:12;23.70;99.90
15821;DHT22;8011;51.650;7.240;2022-07-23T15:06:38;23.70;99.90
15821;DHT22;8011;51.650;7.240;2022-07-23T15:09:05;23.80;99.90
15821;DHT22;8011;51.650;7.240;2022-07-23T15:11:31;23.80;99.90
15821;DHT22;8011;51.650;7.240;2022-07-23T15:14:04;23.80;99.90
15821;DHT22;8011;51.650;7.240;2022-07-23T15:16:30;23.80;99.90
15821;DHT22;8011;51.650;7.240;2022-07-23T15:18:55;23.80;99.90
15821;DHT22;8011;51.650;7.240;2022-07-23T15:21:21;23.80;99.90
15821;DHT22;8011;51.650;7.240;2022-07-23T15:23:47;23.80;99.90
15821;DHT22;8011;51.650;7.240;2022-07-23T15:26:14;23.80;99.90
15821;DHT22;8011;51.650;7.240;2022-07-23T15:28:41;23.80;99.90
15821;DHT22;8011;51.650;7.240;2022-07-23T15:31:07;23.80;99.90
15821;DHT22;8011;51.650;7.240;2022-07-23T15:33:33;23.80;99.90
15821;DHT22;8011;51.650;7.240;2022-07-23T15:35:59;23.90;99.90
15821;DHT22;8011;51.650;7.240;2022-07-23T15:38:26;23.80;99.90
15821;DHT22;8011;51.650;7.240;2022-07-23T15:40:53;23.90;99.90
15821;DHT22;8011;51.650;7.240;2022-07-23T15:43:20;23.90;99.90
15821;DHT22;8011;51.650;7.240;2022-07-23T15:45:45;23.90;99.90
15821;DHT22;8011;51.650;7.240;2022-07-23T15:48:12;24.00;99.90
15821;DHT22;8011;51.650;7.240;2022-07-23T15:50:38;24.10;99.90
15821;DHT22;8011;51.650;7.240;2022-07-23T15:53:03;24.10;99.90
15821;DHT22;8011;51.650;7.240;2022-07-23T15:55:29;24.10;99.90
15821;DHT22;8011;51.650;7.240;2022-07-23T15:57:55;24.20;99.90
15821;DHT22;8011;51.650;7.240;2022-07-23T16:00:20;24.10;99.90
15821;DHT22;8011;51.650;7.240;2022-07-23T16:02:46;24.10;99.90
15821;DHT22;8011;51.650;7.240;2022-07-23T16:05:12;24.00;99.90
15821;DHT22;8011;51.650;7.240;2022-07-23T16:07:37;24.00;99.90
15821;DHT22;8011;51.650;7.240;2022-07-23T16:10:05;24.00;99.90
15821;DHT22;8011;51.650;7.240;2022-07-23T16:12:31;24.00;99.90
15821;DHT22;8011;51.650;7.240;2022-07-23T16:14:56;24.00;99.90
15821;DHT22;8011;51.650;7.240;2022-07-23T16:17:22;24.00;99.90
15821;DHT22;8011;51.650;7.240;2022-07-23T16:19:48;24.00;99.90
15821;DHT22;8011;51.650;7.240;2022-07-23T16:22:13;24.10;99.90
15821;DHT22;8011;51.650;7.240;2022-07-23T16:24:41;24.00;99.90
15821;DHT22;8011;51.650;7.240;2022-07-23T16:27:07;24.00;99.90
15821;DHT22;8011;51.650;7.240;2022-07-23T16:29:33;24.00;99.90
15821;DHT22;8011;51.650;7.240;2022-07-23T16:31:58;24.10;99.90
15821;DHT22;8011;51.650;7.240;2022-07-23T16:34:24;24.10;99.90
15821;DHT22;8011;51.650;7.240;2022-07-23T16:36:50;24.10;99.90
15821;DHT22;8011;51.650;7.240;2022-07-23T16:39:16;24.10;99.90
15821;DHT22;8011;51.650;7.240;2022-07-23T16:41:42;24.10;99.90
15821;DHT22;8011;51.650;7.240;2022-07-23T16:44:08;24.00;99.90
15821;DHT22;8011;51.650;7.240;2022-07-23T16:46:33;23.90;99.90
15821;DHT22;8011;51.650;7.240;2022-07-23T16:48:59;23.90;99.90
15821;DHT22;8011;51.650;7.240;2022-07-23T16:51:25;23.80;99.90
15821;DHT22;8011;51.650;7.240;2022-07-23T16:53:50;23.80;99.90
15821;DHT22;8011;51.650;7.240;2022-07-23T16:56:16;23.80;99.90
15821;DHT22;8011;51.650;7.240;2022-07-23T16:58:42;23.80;99.90
15821;DHT22;8011;51.650;7.240;2022-07-23T17:01:08;23.80;99.90
15821;DHT22;8011;51.650;7.240;2022-07-23T17:03:34;23.80;99.90
15821;DHT22;8011;51.650;7.240;2022-07-23T17:05:59;23.80;99.90
15821;DHT22;8011;51.650;7.240;2022-07-23T17:08:25;23.80;99.90
15821;DHT22;8011;51.650;7.240;2022-07-23T17:10:51;23.80;99.90
15821;DHT22;8011;51.650;7.240;2022-07-23T17:13:18;23.90;99.90
15821;DHT22;8011;51.650;7.240;2022-07-23T17:15:44;23.80;99.90
15821;DHT22;8011;51.650;7.240;2022-07-23T17:18:10;23.90;99.90
15821;DHT22;8011;51.650;7.240;2022-07-23T17:20:39;23.90;99.90
15821;DHT22;8011;51.650;7.240;2022-07-23T17:23:05;23.90;99.90
15821;DHT22;8011;51.650;7.240;2022-07-23T17:25:31;23.90;99.90
15821;DHT22;8011;51.650;7.240;2022-07-23T17:27:56;23.90;99.90
15821;DHT22;8011;51.650;7.240;2022-07-23T17:30:22;23.90;99.90
15821;DHT22;8011;51.650;7.240;2022-07-23T17:32:48;23.90;99.90
15821;DHT22;8011;51.650;7.240;2022-07-23T17:35:13;23.90;99.90
15821;DHT22;8011;51.650;7.240;2022-07-23T17:37:39;23.90;99.90
15821;DHT22;8011;51.650;7.240;2022-07-23T17:40:06;23.90;99.90
15821;DHT22;8011;51.650;7.240;2022-07-23T17:42:33;23.90;99.90
15821;DHT22;8011;51.650;7.240;2022-07-23T17:44:58;23.90;99.90
15821;DHT22;8011;51.650;7.240;2022-07-23T17:47:24;23.80;99.90
15821;DHT22;8011;51.650;7.240;2022-07-23T17:49:50;23.80;99.90
15821;DHT22;8011;51.650;7.240;2022-07-23T17:52:16;23.80;99.90
15821;DHT22;8011;51.650;7.240;2022-07-23T17:54:42;23.70;99.90
15821;DHT22;8011;51.650;7.240;2022-07-23T17:57:07;23.70;99.90
15821;DHT22;8011;51.650;7.240;2022-07-23T17:59:33;23.70;99.90
15821;DHT22;8011;51.650;7.240;2022-07-23T18:02:00;23.70;99.90
15821;DHT22;8011;51.650;7.240;2022-07-23T18:04:28;23.70;99.90
15821;DHT22;8011;51.650;7.240;2022-07-23T18:06:54;23.70;99.90
15821;DHT22;8011;51.650;7.240;2022-07-23T18:09:20;23.70;99.90
15821;DHT22;8011;51.650;7.240;2022-07-23T18:11:46;23.70;99.90
15821;DHT22;8011;51.650;7.240;2022-07-23T18:14:12;23.70;99.90
15821;DHT22;8011;51.650;7.240;2022-07-23T18:16:38;23.60;99.90
15821;DHT22;8011;51.650;7.240;2022-07-23T18:19:04;23.50;99.90
15821;DHT22;8011;51.650;7.240;2022-07-23T18:21:31;23.50;99.90
15821;DHT22;8011;51.650;7.240;2022-07-23T18:23:57;23.50;99.90
15821;DHT22;8011;51.650;7.240;2022-07-23T18:26:23;23.40;99.90
15821;DHT22;8011;51.650;7.240;2022-07-23T18:28:48;23.40;99.90
15821;DHT22;8011;51.650;7.240;2022-07-23T18:31:14;23.40;99.90
15821;DHT22;8011;51.650;7.240;2022-07-23T18:33:40;23.40;99.90
15821;DHT22;8011;51.650;7.240;2022-07-23T18:36:06;23.40;99.90
15821;DHT22;8011;51.650;7.240;2022-07-23T18:38:32;23.40;99.90
15821;DHT22;8011;51.650;7.240;2022-07-23T18:40:58;23.40;99.90
15821;DHT22;8011;51.650;7.240;2022-07-23T18:43:24;23.30;99.90
15821;DHT22;8011;51.650;7.240;2022-07-23T18:45:50;23.30;99.90
15821;DHT22;8011;51.650;7.240;2022-07-23T18:48:16;23.30;99.90
15821;DHT22;8011;51.650;7.240;2022-07-23T18:50:43;23.30;99.90
15821;DHT22;8011;51.650;7.240;2022-07-23T18:53:10;23.30;99.90
15821;DHT22;8011;51.650;7.240;2022-07-23T18:55:37;23.20;99.90
15821;DHT22;8011;51.650;7.240;2022-07-23T18:58:03;23.20;99.90
15821;DHT22;8011;51.650;7.240;2022-07-23T19:00:30;23.10;99.90
15821;DHT22;8011;51.650;7.240;2022-07-23T19:02:57;23.10;99.90
15821;DHT22;8011;51.650;7.240;2022-07-23T19:05:23;23.10;99.90
15821;DHT22;8011;51.650;7.240;2022-07-23T19:07:49;23.10;99.90
15821;DHT22;8011;51.650;7.240;2022-07-23T19:10:15;23.10;99.90
15821;DHT22;8011;51.650;7.240;2022-07-23T19:12:40;23.10;99.90
15821;DHT22;8011;51.650;7.240;2022-07-23T19:15:07;23.00;99.90
15821;DHT22;8011;51.650;7.240;2022-07-23T19:17:33;23.00;99.90
15821;DHT22;8011;51.650;7.240;2022-07-23T19:19:59;22.90;99.90
15821;DHT22;8011;51.650;7.240;2022-07-23T19:22:25;22.80;99.90
15821;DHT22;8011;51.650;7.240;2022-07-23T19:24:53;22.80;99.90
15821;DHT22;8011;51.650;7.240;2022-07-23T19:27:19;22.80;99.90
15821;DHT22;8011;51.650;7.240;2022-07-23T19:29:45;22.70;99.90